createdAt,value
2023-04-15T00:00:50.413Z,74.2977
2023-04-15T00:01:51.118Z,73.5927
2023-04-15T00:02:52.215Z,73.6016
2023-04-15T00:03:53.401Z,74.3648
2023-04-15T00:04:53.374Z,74.4267
2023-04-15T00:05:54.310Z,74.0321
2023-04-15T00:06:55.022Z,74.5869
2023-04-15T00:07:55.460Z,74.8542
2023-04-15T00:08:56.122Z,74.5949
2023-04-15T00:09:56.625Z,75.1087
2023-04-15T00:10:57.217Z,74.8058
2023-04-15T00:11:57.851Z,74.9241
2023-04-15T00:12:58.424Z,75.0729
2023-04-15T00:13:59.129Z,74.9317
2023-04-15T00:14:59.833Z,74.9465
2023-04-15T00:16:00.489Z,75.0499
2023-04-15T00:17:01.574Z,75.3456
2023-04-15T00:18:02.402Z,75.1006
2023-04-15T00:19:03.297Z,75.1213
2023-04-15T00:20:04.213Z,75.5902
2023-04-15T00:21:04.689Z,75.2440
2023-04-15T00:22:05.365Z,75.5646
2023-04-15T00:23:06.103Z,75.6969
2023-04-15T00:24:06.603Z,75.2602
2023-04-15T00:25:07.451Z,75.3375
2023-04-15T00:26:08.432Z,74.9252
2023-04-15T00:27:09.080Z,74.9072
2023-04-15T00:28:09.979Z,75.0704
2023-04-15T00:29:10.859Z,75.2257
2023-04-15T00:30:11.408Z,75.5129
2023-04-15T00:31:12.724Z,75.3542
2023-04-15T00:32:13.379Z,75.4984
2023-04-15T00:33:14.113Z,76.0775
2023-04-15T00:34:14.723Z,76.0597
2023-04-15T00:35:15.206Z,76.2405
2023-04-15T00:36:16.003Z,76.1271
2023-04-15T00:37:16.497Z,76.6239
2023-04-15T00:38:17.114Z,76.8385
2023-04-15T00:39:17.894Z,77.2948
2023-04-15T00:40:18.521Z,77.4225
2023-04-15T00:41:19.313Z,78.0702
2023-04-15T00:42:19.997Z,78.1205
2023-04-15T00:43:20.583Z,78.2920
2023-04-15T00:44:21.197Z,78.8971
2023-04-15T00:45:21.691Z,78.9471
2023-04-15T00:46:22.840Z,79.2256
2023-04-15T00:47:23.613Z,79.6928
2023-04-15T00:48:24.412Z,79.8617
2023-04-15T00:49:25.170Z,79.5715
2023-04-15T00:50:25.842Z,79.3982
2023-04-15T00:51:26.523Z,79.5314
2023-04-15T00:52:27.291Z,79.4434
2023-04-15T00:53:27.885Z,79.4591
2023-04-15T00:54:28.658Z,79.4869
2023-04-15T00:55:29.291Z,79.2153
2023-04-15T00:56:29.870Z,79.1934
2023-04-15T00:57:30.749Z,79.3033
2023-04-15T00:58:31.348Z,79.1780
2023-04-15T00:59:32.126Z,79.1759
2023-04-15T01:00:32.656Z,79.1898
2023-04-15T01:01:33.288Z,78.9508
2023-04-15T01:02:33.748Z,79.1397
2023-04-15T01:03:35.364Z,79.0291
2023-04-15T01:04:35.348Z,78.7333
2023-04-15T01:05:36.398Z,79.0362
2023-04-15T01:06:37.019Z,78.8489
2023-04-15T01:07:37.959Z,78.9146
2023-04-15T01:08:39.037Z,78.8401
2023-04-15T01:09:39.639Z,78.0398
2023-04-15T01:10:40.621Z,77.3274
2023-04-15T01:11:41.230Z,76.8538
2023-04-15T01:12:41.952Z,76.6397
2023-04-15T01:13:42.726Z,76.4928
2023-04-15T01:14:43.626Z,76.0853
2023-04-15T01:15:44.328Z,75.7384
2023-04-15T01:16:45.510Z,76.2708
2023-04-15T01:17:46.167Z,75.5757
2023-04-15T01:18:46.188Z,75.3697
2023-04-15T01:19:46.323Z,74.8776
2023-04-15T01:20:47.099Z,74.3032
2023-04-15T01:21:47.772Z,74.3313
2023-04-15T01:22:48.271Z,74.1454
2023-04-15T01:23:48.916Z,74.1164
2023-04-15T01:24:49.670Z,73.8420
2023-04-15T01:25:50.174Z,73.6489
2023-04-15T01:26:51.055Z,73.2421
2023-04-15T01:27:52.036Z,73.8507
2023-04-15T01:28:52.639Z,74.3774
2023-04-15T01:29:53.375Z,74.4017
2023-04-15T01:30:53.997Z,74.5042
2023-04-15T01:31:55.066Z,74.5436
2023-04-15T01:32:55.590Z,74.2503
2023-04-15T01:33:56.258Z,74.3661
2023-04-15T01:34:57.370Z,74.6110
2023-04-15T01:35:58.188Z,74.4947
2023-04-15T01:36:58.824Z,74.5510
2023-04-15T01:37:59.663Z,74.5617
2023-04-15T01:39:00.347Z,74.7006
2023-04-15T01:40:00.542Z,75.2766
2023-04-15T01:41:01.261Z,75.7876
2023-04-15T01:42:01.930Z,75.9039
2023-04-15T01:43:02.762Z,75.9062
2023-04-15T01:44:03.528Z,75.9688
2023-04-15T01:45:04.079Z,75.9853
2023-04-15T01:46:04.805Z,75.8200
2023-04-15T01:47:06.128Z,75.4771
2023-04-15T01:48:07.192Z,75.5767
2023-04-15T01:49:08.486Z,75.1778
2023-04-15T01:50:09.114Z,74.9820
2023-04-15T01:51:09.814Z,75.1891
2023-04-15T01:52:10.532Z,75.2426
2023-04-15T01:53:11.423Z,75.3427
2023-04-15T01:54:11.899Z,75.6496
2023-04-15T01:55:12.544Z,75.3938
2023-04-15T01:56:14.717Z,75.3079
2023-04-15T01:57:13.651Z,75.3503
2023-04-15T01:58:14.504Z,75.5085
2023-04-15T01:59:14.970Z,75.3319
2023-04-15T02:00:15.668Z,74.9558
2023-04-15T02:01:16.773Z,74.7471
2023-04-15T02:02:17.941Z,74.8300
2023-04-15T02:03:18.479Z,76.0920
2023-04-15T02:04:19.449Z,76.3151
2023-04-15T02:05:20.135Z,76.0471
2023-04-15T02:06:20.799Z,76.0098
2023-04-15T02:07:21.288Z,76.0212
2023-04-15T02:08:21.952Z,76.2106
2023-04-15T02:09:23.049Z,76.4023
2023-04-15T02:10:23.517Z,76.2417
2023-04-15T02:11:24.127Z,76.2703
2023-04-15T02:12:24.546Z,76.4441
2023-04-15T02:13:25.165Z,76.3423
2023-04-15T02:14:26.087Z,76.5551
2023-04-15T02:15:26.602Z,76.9127
2023-04-15T02:16:27.596Z,76.7757
2023-04-15T02:17:28.721Z,76.7980
2023-04-15T02:18:29.599Z,77.0493
2023-04-15T02:19:30.452Z,77.1224
2023-04-15T02:20:31.178Z,77.1317
2023-04-15T02:21:31.819Z,77.1446
2023-04-15T02:22:32.765Z,77.0229
2023-04-15T02:23:33.208Z,76.9040
2023-04-15T02:24:33.937Z,77.2542
2023-04-15T02:25:34.559Z,77.6131
2023-04-15T02:26:34.870Z,77.8448
2023-04-15T02:27:35.585Z,77.8649
2023-04-15T02:28:36.091Z,77.8428
2023-04-15T02:29:36.868Z,78.6068
2023-04-15T02:30:37.679Z,78.7489
2023-04-15T02:31:38.206Z,78.9903
2023-04-15T02:32:39.220Z,78.6348
2023-04-15T02:33:40.069Z,77.4764
2023-04-15T02:34:40.600Z,77.0275
2023-04-15T02:35:41.498Z,76.7081
2023-04-15T02:36:41.887Z,76.4079
2023-04-15T02:37:42.672Z,76.3468
2023-04-15T02:38:43.339Z,76.4484
2023-04-15T02:39:43.865Z,76.1711
2023-04-15T02:40:44.669Z,76.3700
2023-04-15T02:41:45.398Z,76.5471
2023-04-15T02:42:45.948Z,76.9112
2023-04-15T02:43:46.624Z,77.2660
2023-04-15T02:44:47.131Z,77.2653
2023-04-15T02:45:47.867Z,77.3444
2023-04-15T02:46:48.912Z,76.5212
2023-04-15T02:47:49.519Z,76.4782
2023-04-15T02:48:50.185Z,76.7528
2023-04-15T02:49:50.977Z,76.6627
2023-04-15T02:50:52.007Z,76.6075
2023-04-15T02:51:51.863Z,76.3311
2023-04-15T02:52:52.334Z,76.6430
2023-04-15T02:53:52.981Z,76.6138
2023-04-15T02:54:53.762Z,76.5913
2023-04-15T02:55:54.467Z,76.7793
2023-04-15T02:56:55.278Z,76.9139
2023-04-15T02:57:56.256Z,76.5646
2023-04-15T02:58:56.703Z,76.5300
2023-04-15T02:59:57.670Z,76.5945
2023-04-15T03:00:58.289Z,76.5628
2023-04-15T03:01:59.419Z,76.3334
2023-04-15T03:02:59.633Z,76.2348
2023-04-15T03:04:00.938Z,76.3693
2023-04-15T03:05:00.991Z,76.8538
2023-04-15T03:06:01.519Z,77.4327
2023-04-15T03:07:02.046Z,77.5139
2023-04-15T03:08:03.397Z,77.9865
2023-04-15T03:10:03.656Z,78.1489
2023-04-15T03:11:04.163Z,78.3688
2023-04-15T03:12:05.081Z,78.0436
2023-04-15T03:13:05.434Z,77.7771
2023-04-15T03:14:06.182Z,77.6319
2023-04-15T03:15:06.642Z,77.8720
2023-04-15T03:16:07.677Z,77.7063
2023-04-15T03:17:08.435Z,77.7226
2023-04-15T03:18:09.139Z,77.9766
2023-04-15T03:19:10.438Z,78.1708
2023-04-15T03:20:11.405Z,78.3761
2023-04-15T03:21:11.934Z,78.4068
2023-04-15T03:22:12.566Z,78.3940
2023-04-15T03:23:13.198Z,77.8649
2023-04-15T03:24:13.673Z,77.4571
2023-04-15T03:25:14.401Z,77.6891
2023-04-15T03:26:15.182Z,78.0052
2023-04-15T03:27:15.603Z,78.5101
2023-04-15T03:28:16.360Z,78.4717
2023-04-15T03:29:16.737Z,78.6485
2023-04-15T03:30:17.463Z,78.6344
2023-04-15T03:31:18.151Z,78.1445
2023-04-15T03:32:18.989Z,77.9396
2023-04-15T03:33:19.926Z,77.7568
2023-04-15T03:34:20.608Z,77.8174
2023-04-15T03:35:21.210Z,77.6688
2023-04-15T03:36:21.760Z,77.6506
2023-04-15T03:37:22.320Z,77.5848
2023-04-15T03:38:22.818Z,77.4824
2023-04-15T03:39:24.062Z,77.2344
2023-04-15T03:40:24.565Z,77.4165
2023-04-15T03:41:25.243Z,77.5604
2023-04-15T03:42:25.915Z,78.0817
2023-04-15T03:43:26.922Z,78.2095
2023-04-15T03:44:27.633Z,77.9582
2023-04-15T03:45:28.088Z,78.0733
2023-04-15T03:46:29.244Z,78.3768
2023-04-15T03:47:30.018Z,78.5684
2023-04-15T03:48:30.580Z,78.4419
2023-04-15T03:49:31.828Z,78.1707
2023-04-15T03:50:32.397Z,78.0839
2023-04-15T03:51:33.042Z,77.7987
2023-04-15T03:52:33.722Z,77.7343
2023-04-15T03:53:34.473Z,77.8954
2023-04-15T03:54:35.040Z,77.9670
2023-04-15T03:55:35.552Z,78.0174
2023-04-15T03:56:35.992Z,77.4803
2023-04-15T03:57:36.640Z,77.5243
2023-04-15T03:58:37.479Z,77.4841
2023-04-15T03:59:38.554Z,77.7091
2023-04-15T04:00:39.163Z,77.9335
2023-04-15T04:01:39.848Z,78.1246
2023-04-15T04:02:40.227Z,78.2038
2023-04-15T04:03:41.035Z,77.9872
2023-04-15T04:04:41.546Z,78.1263
2023-04-15T04:05:42.288Z,78.3728
2023-04-15T04:06:43.044Z,78.4265
2023-04-15T04:07:44.018Z,78.3983
2023-04-15T04:08:44.544Z,78.4812
2023-04-15T04:09:47.154Z,78.5359
2023-04-15T04:10:46.793Z,78.7083
2023-04-15T04:11:47.389Z,78.8506
2023-04-15T04:12:48.051Z,78.8543
2023-04-15T04:13:48.489Z,79.1564
2023-04-15T04:14:49.152Z,79.0196
2023-04-15T04:15:49.941Z,78.8475
2023-04-15T04:16:50.080Z,79.0028
2023-04-15T04:17:51.105Z,79.2630
2023-04-15T04:18:51.608Z,78.8027
2023-04-15T04:19:52.307Z,78.5732
2023-04-15T04:20:53.031Z,78.7744
2023-04-15T04:21:53.528Z,78.9419
2023-04-15T04:22:54.189Z,78.8632
2023-04-15T04:23:54.866Z,78.9870
2023-04-15T04:24:55.254Z,79.0297
2023-04-15T04:25:55.882Z,79.1539
2023-04-15T04:26:56.527Z,79.1587
2023-04-15T04:27:57.064Z,79.4448
2023-04-15T04:28:57.719Z,79.7610
2023-04-15T04:29:58.173Z,79.4754
2023-04-15T04:30:58.665Z,79.5416
2023-04-15T04:31:59.650Z,79.3671
2023-04-15T04:33:00.505Z,78.9215
2023-04-15T04:34:01.104Z,78.2975
2023-04-15T04:35:01.555Z,78.0698
2023-04-15T04:36:02.378Z,77.8010
2023-04-15T04:37:02.977Z,77.4314
2023-04-15T04:38:03.518Z,76.8999
2023-04-15T04:39:04.483Z,77.0562
2023-04-15T04:40:05.178Z,77.1023
2023-04-15T04:41:05.674Z,77.1304
2023-04-15T04:42:06.249Z,76.9783
2023-04-15T04:43:06.835Z,76.9650
2023-04-15T04:44:07.441Z,76.1748
2023-04-15T04:45:08.222Z,76.1162
2023-04-15T04:47:09.554Z,74.8948
2023-04-15T04:48:10.421Z,75.1305
2023-04-15T04:49:11.397Z,74.7973
2023-04-15T04:50:12.085Z,75.1023
2023-04-15T04:51:12.783Z,75.3201
2023-04-15T04:52:13.350Z,75.5215
2023-04-15T04:53:14.036Z,75.5138
2023-04-15T04:54:14.871Z,75.1320
2023-04-15T04:55:15.800Z,75.3624
2023-04-15T04:56:16.383Z,75.3100
2023-04-15T04:57:16.850Z,75.7325
2023-04-15T04:58:17.530Z,75.8181
2023-04-15T04:59:19.918Z,75.4919
2023-04-15T05:00:20.469Z,75.5804
2023-04-15T05:01:21.277Z,75.3714
2023-04-15T05:02:21.837Z,75.4018
2023-04-15T05:03:22.071Z,75.4104
2023-04-15T05:04:22.037Z,75.7525
2023-04-15T05:05:22.487Z,75.7231
2023-04-15T05:06:23.315Z,75.7123
2023-04-15T05:07:23.995Z,75.9602
2023-04-15T05:08:24.548Z,75.9032
2023-04-15T05:09:25.788Z,76.0628
2023-04-15T05:10:26.436Z,75.7428
2023-04-15T05:11:26.884Z,75.5100
2023-04-15T05:12:27.720Z,76.2239
2023-04-15T05:13:28.126Z,76.1266
2023-04-15T05:14:29.217Z,76.2057
2023-04-15T05:15:29.875Z,76.1607
2023-04-15T05:16:30.529Z,76.3328
2023-04-15T05:17:31.475Z,76.4617
2023-04-15T05:18:32.145Z,76.5770
2023-04-15T05:19:33.198Z,76.3281
2023-04-15T05:20:33.874Z,76.3440
2023-04-15T05:21:34.437Z,76.8788
2023-04-15T05:22:34.922Z,77.1231
2023-04-15T05:23:35.819Z,77.2270
2023-04-15T05:24:36.286Z,77.5856
2023-04-15T05:25:36.418Z,77.4837
2023-04-15T05:26:37.042Z,77.2748
2023-04-15T05:27:37.647Z,76.7417
2023-04-15T05:28:38.517Z,76.3140
2023-04-15T05:29:39.307Z,76.0277
2023-04-15T05:30:39.844Z,75.9423
2023-04-15T05:31:40.740Z,75.6081
2023-04-15T05:32:41.839Z,75.5655
2023-04-15T05:33:42.425Z,75.8061
2023-04-15T05:34:43.267Z,75.6365
2023-04-15T05:35:43.736Z,75.7839
2023-04-15T05:36:44.352Z,75.8585
2023-04-15T05:37:45.077Z,76.1740
2023-04-15T05:38:45.543Z,76.0602
2023-04-15T05:39:46.910Z,75.9039
2023-04-15T05:40:46.603Z,75.7729
2023-04-15T05:41:47.295Z,74.7795
2023-04-15T05:42:47.990Z,74.6905
2023-04-15T05:43:48.436Z,74.9120
2023-04-15T05:44:49.293Z,74.6995
2023-04-15T05:45:50.209Z,74.8356
2023-04-15T05:46:50.759Z,75.1029
2023-04-15T05:47:51.616Z,75.1510
2023-04-15T05:48:53.396Z,74.9969
2023-04-15T05:49:53.361Z,74.9168
2023-04-15T05:50:54.099Z,75.1048
2023-04-15T05:51:54.714Z,74.3568
2023-04-15T05:52:55.412Z,74.2510
2023-04-15T05:53:56.184Z,74.2961
2023-04-15T05:54:56.745Z,74.3543
2023-04-15T05:55:57.487Z,74.8728
2023-04-15T05:56:58.400Z,74.5564
2023-04-15T05:57:58.953Z,74.4252
2023-04-15T05:58:59.800Z,74.2742
2023-04-15T06:00:00.567Z,74.1523
2023-04-15T06:01:01.085Z,73.5481
2023-04-15T06:02:01.852Z,73.6316
2023-04-15T06:03:03.077Z,73.9043
2023-04-15T06:04:03.688Z,73.4094
2023-04-15T06:05:03.792Z,73.5675
2023-04-15T06:06:04.413Z,73.3720
2023-04-15T06:07:05.148Z,73.2497
2023-04-15T06:08:05.842Z,73.8838
2023-04-15T06:09:06.019Z,73.6443
2023-04-15T06:10:06.854Z,73.5858
2023-04-15T06:11:07.335Z,73.0778
2023-04-15T06:12:08.176Z,73.2893
2023-04-15T06:13:08.808Z,73.2219
2023-04-15T06:14:09.373Z,72.8992
2023-04-15T06:15:10.204Z,73.1928
2023-04-15T06:16:11.509Z,73.1716
2023-04-15T06:17:12.392Z,73.8335
2023-04-15T06:18:13.357Z,74.0134
2023-04-15T06:19:15.142Z,73.0777
2023-04-15T06:20:14.482Z,72.8507
2023-04-15T06:21:15.487Z,72.6248
2023-04-15T06:22:16.017Z,72.6937
2023-04-15T06:23:16.870Z,72.6690
2023-04-15T06:24:17.560Z,72.6532
2023-04-15T06:25:18.201Z,72.5180
2023-04-15T06:26:18.911Z,72.1827
2023-04-15T06:27:19.435Z,71.1049
2023-04-15T06:28:19.971Z,71.0067
2023-04-15T06:29:20.907Z,71.4783
2023-04-15T06:30:23.496Z,71.4579
2023-04-15T06:31:22.671Z,71.2502
2023-04-15T06:32:23.730Z,70.8454
2023-04-15T06:33:24.578Z,70.6394
2023-04-15T06:34:25.778Z,70.0921
2023-04-15T06:35:26.815Z,69.7308
2023-04-15T06:36:27.616Z,69.7573
2023-04-15T06:37:28.395Z,69.8693
2023-04-15T06:38:29.460Z,69.9233
2023-04-15T06:39:29.953Z,69.8603
2023-04-15T06:40:30.827Z,70.3809
2023-04-15T06:41:31.440Z,69.0568
2023-04-15T06:42:32.155Z,69.5396
2023-04-15T06:43:32.773Z,69.5779
2023-04-15T06:44:34.029Z,68.8232
2023-04-15T06:45:33.678Z,67.5376
2023-04-15T06:46:34.657Z,67.6693
2023-04-15T06:47:35.465Z,68.5339
2023-04-15T06:48:36.143Z,68.9068
2023-04-15T06:49:36.727Z,69.4144
2023-04-15T06:50:37.443Z,69.6950
2023-04-15T06:51:37.922Z,70.1008
2023-04-15T06:52:38.834Z,69.7563
2023-04-15T06:53:39.579Z,69.7367
2023-04-15T06:54:40.146Z,69.8326
2023-04-15T06:55:41.049Z,68.9395
2023-04-15T06:56:41.873Z,68.5742
2023-04-15T06:57:42.481Z,69.0944
2023-04-15T06:58:43.279Z,69.0779
2023-04-15T06:59:44.335Z,68.4678
2023-04-15T07:00:44.948Z,69.3380
2023-04-15T07:01:46.009Z,69.7756
2023-04-15T07:02:46.121Z,69.5884
2023-04-15T07:03:46.966Z,69.2040
2023-04-15T07:04:47.912Z,69.2718
2023-04-15T07:05:48.461Z,68.9079
2023-04-15T07:06:49.320Z,69.3044
2023-04-15T07:07:49.995Z,69.8644
2023-04-15T07:08:50.738Z,69.7772
2023-04-15T07:09:51.864Z,69.4989
2023-04-15T07:10:52.794Z,68.9119
2023-04-15T07:11:53.781Z,68.9176
2023-04-15T07:12:54.988Z,69.6121
2023-04-15T07:13:55.807Z,68.6046
2023-04-15T07:14:56.686Z,68.5197
2023-04-15T07:15:56.878Z,68.7970
2023-04-15T07:16:58.165Z,69.1972
2023-04-15T07:17:59.805Z,69.4136
2023-04-15T07:19:01.331Z,69.7647
2023-04-15T07:21:01.471Z,70.2827
2023-04-15T07:22:02.368Z,70.2314
2023-04-15T07:23:03.108Z,69.7757
2023-04-15T07:24:03.241Z,69.9973
2023-04-15T07:25:04.262Z,70.6095
2023-04-15T07:26:04.452Z,70.5178
2023-04-15T07:27:05.525Z,71.1346
2023-04-15T07:28:06.289Z,70.9990
2023-04-15T07:29:07.817Z,71.2315
2023-04-15T07:30:08.177Z,71.5711
2023-04-15T07:31:08.997Z,71.1454
2023-04-15T07:32:10.226Z,71.3207
2023-04-15T07:33:10.237Z,71.9637
2023-04-15T07:34:10.980Z,71.8059
2023-04-15T07:35:12.044Z,71.5804
2023-04-15T07:36:12.873Z,71.6252
2023-04-15T07:37:13.915Z,71.9824
2023-04-15T07:38:14.923Z,72.6506
2023-04-15T07:39:15.713Z,72.8766
2023-04-15T07:40:16.852Z,73.4345
2023-04-15T07:41:17.601Z,73.5136
2023-04-15T07:42:18.306Z,72.9015
2023-04-15T07:43:19.014Z,73.0500
2023-04-15T07:44:20.031Z,73.4806
2023-04-15T07:45:20.703Z,73.3895
2023-04-15T07:46:21.023Z,73.4531
2023-04-15T07:47:21.289Z,74.0854
2023-04-15T07:48:21.322Z,74.1070
2023-04-15T07:49:22.441Z,73.8658
2023-04-15T07:50:23.202Z,73.3709
2023-04-15T07:51:24.343Z,73.7721
2023-04-15T07:52:25.200Z,73.8826
2023-04-15T07:53:25.980Z,74.0913
2023-04-15T07:54:26.831Z,73.9341
2023-04-15T07:55:28.428Z,74.1775
2023-04-15T07:56:29.003Z,74.2438
2023-04-15T07:57:29.820Z,74.3459
2023-04-15T07:58:30.876Z,74.0016
2023-04-15T07:59:31.884Z,73.9514
2023-04-15T08:00:33.093Z,73.9229
2023-04-15T08:01:33.960Z,73.9658
2023-04-15T08:02:34.269Z,73.6228
2023-04-15T08:03:34.623Z,73.5098
2023-04-15T08:04:35.886Z,73.2020
2023-04-15T08:05:36.694Z,73.4004
2023-04-15T08:06:37.517Z,73.6520
2023-04-15T08:07:38.124Z,73.6696
2023-04-15T08:08:38.920Z,73.6456
2023-04-15T08:09:39.787Z,73.3057
2023-04-15T08:10:40.430Z,73.2142
2023-04-15T08:11:41.440Z,72.9776
2023-04-15T08:12:42.824Z,73.4300
2023-04-15T08:13:45.027Z,72.7570
2023-04-15T08:14:45.445Z,72.5555
2023-04-15T08:15:46.545Z,72.0276
2023-04-15T08:16:47.818Z,72.5498
2023-04-15T08:17:49.085Z,72.0935
2023-04-15T08:18:50.056Z,71.5815
2023-04-15T08:19:51.225Z,72.1034
2023-04-15T08:20:51.872Z,71.8088
2023-04-15T08:21:52.728Z,72.1227
2023-04-15T08:22:53.901Z,71.5621
2023-04-15T08:23:54.886Z,71.6960
2023-04-15T08:24:55.782Z,71.2784
2023-04-15T08:25:56.059Z,71.9262
2023-04-15T08:26:56.951Z,71.2664
2023-04-15T08:27:57.862Z,70.7019
2023-04-15T08:28:58.690Z,69.8401
2023-04-15T08:29:59.023Z,70.2027
2023-04-15T08:30:59.551Z,70.2140
2023-04-15T08:32:00.785Z,69.3292
2023-04-15T08:33:01.672Z,69.1486
2023-04-15T08:34:02.548Z,68.1755
2023-04-15T08:35:03.344Z,68.2379
2023-04-15T08:36:04.192Z,68.9819
2023-04-15T08:37:05.096Z,69.5414
2023-04-15T08:38:06.018Z,69.2804
2023-04-15T08:39:06.830Z,69.1911
2023-04-15T08:40:07.670Z,69.4333
2023-04-15T08:41:08.426Z,69.6147
2023-04-15T08:42:08.511Z,69.7741
2023-04-15T08:43:09.053Z,68.7209
2023-04-15T08:44:09.550Z,68.4581
2023-04-15T08:45:10.746Z,68.9770
2023-04-15T08:46:11.916Z,68.9395
2023-04-15T08:47:13.086Z,69.1545
2023-04-15T08:48:13.619Z,68.8065
2023-04-15T08:49:14.918Z,69.0931
2023-04-15T08:50:16.090Z,69.2716
2023-04-15T08:52:16.493Z,69.1114
2023-04-15T08:53:17.478Z,68.6704
2023-04-15T08:54:18.295Z,67.8083
2023-04-15T08:55:18.364Z,66.4642
2023-04-15T08:56:18.748Z,66.4705
2023-04-15T08:57:19.206Z,67.0545
2023-04-15T08:58:19.279Z,66.3137
2023-04-15T08:59:20.433Z,66.2426
2023-04-15T09:00:20.830Z,66.5398
2023-04-15T09:01:21.898Z,68.5092
2023-04-15T09:02:23.189Z,69.4711
2023-04-15T09:03:23.894Z,70.9998
2023-04-15T09:04:23.761Z,72.0905
2023-04-15T09:05:24.755Z,72.1859
2023-04-15T09:07:25.652Z,73.2961
2023-04-15T09:08:26.794Z,73.1810
2023-04-15T09:09:27.656Z,73.3934
2023-04-15T09:10:28.707Z,75.0241
2023-04-15T09:11:29.581Z,75.3334
2023-04-15T09:12:30.491Z,75.7750
2023-04-15T09:13:30.734Z,74.9454
2023-04-15T09:14:31.547Z,74.4927
2023-04-15T09:15:32.710Z,76.1548
2023-04-15T09:16:33.919Z,76.9824
2023-04-15T09:17:35.035Z,76.7549
2023-04-15T09:18:35.442Z,76.1500
2023-04-15T09:19:35.392Z,77.5218
2023-04-15T09:20:36.160Z,76.1262
2023-04-15T09:21:37.184Z,76.4554
2023-04-15T09:22:37.474Z,76.8022
2023-04-15T09:24:38.031Z,75.4038
2023-04-15T09:25:38.088Z,76.2673
2023-04-15T09:26:38.955Z,76.2165
2023-04-15T09:27:39.443Z,74.9166
2023-04-15T09:28:39.647Z,74.4040
2023-04-15T09:29:40.781Z,75.0507
2023-04-15T09:30:41.649Z,73.7805
2023-04-15T09:31:41.846Z,72.3645
2023-04-15T09:32:43.293Z,72.9487
2023-04-15T09:34:43.144Z,70.9123
2023-04-15T09:35:44.028Z,70.4305
2023-04-15T09:36:44.827Z,70.3335
2023-04-15T09:37:45.616Z,68.4591
2023-04-15T09:38:46.340Z,69.3753
2023-04-15T09:39:47.151Z,69.9996
2023-04-15T09:40:48.240Z,72.6777
2023-04-15T09:41:49.669Z,73.8091
2023-04-15T09:42:52.441Z,72.3587
2023-04-15T09:43:53.540Z,71.4945
2023-04-15T09:44:53.579Z,71.3530
2023-04-15T09:45:54.533Z,72.7342
2023-04-15T09:46:55.254Z,72.4979
2023-04-15T09:47:57.084Z,71.4270
2023-04-15T09:48:56.909Z,71.4405
2023-04-15T09:49:57.867Z,70.2053
2023-04-15T09:50:57.798Z,72.0062
2023-04-15T09:52:04.469Z,71.0850
2023-04-15T09:52:58.731Z,69.9115
2023-04-15T09:53:59.687Z,67.4200
2023-04-15T09:54:59.627Z,65.2598
2023-04-15T09:56:00.152Z,64.9337
2023-04-15T09:57:01.008Z,64.8160
2023-04-15T09:58:01.758Z,64.2368
2023-04-15T09:59:02.782Z,64.5384
2023-04-15T10:00:03.726Z,63.2564
2023-04-15T10:01:04.905Z,63.7837
2023-04-15T10:02:06.061Z,65.0682
2023-04-15T10:03:06.921Z,63.2885
2023-04-15T10:04:07.459Z,63.5365
2023-04-15T10:05:08.219Z,65.4278
2023-04-15T10:06:08.355Z,65.9568
2023-04-15T10:07:09.479Z,66.1823
2023-04-15T10:08:10.573Z,67.1649
2023-04-15T10:09:11.736Z,66.3859
2023-04-15T10:10:12.752Z,66.8322
2023-04-15T10:11:13.890Z,67.4436
2023-04-15T10:12:15.036Z,67.5380
2023-04-15T10:13:15.834Z,67.6572
2023-04-15T10:14:16.859Z,68.8968
2023-04-15T10:15:17.898Z,68.8538
2023-04-15T10:16:18.695Z,70.0277
2023-04-15T10:17:19.823Z,70.3448
2023-04-15T10:18:20.864Z,69.9822
2023-04-15T10:19:21.720Z,70.9949
2023-04-15T10:20:22.668Z,71.3206
2023-04-15T10:21:23.327Z,72.4918
2023-04-15T10:22:24.433Z,73.1763
2023-04-15T10:23:24.695Z,71.9169
2023-04-15T10:24:25.366Z,70.9657
2023-04-15T10:25:26.571Z,72.7929
2023-04-15T10:26:27.151Z,71.1235
2023-04-15T10:27:27.935Z,71.8234
2023-04-15T10:28:28.700Z,70.5270
2023-04-15T10:29:29.958Z,70.7562
2023-04-15T10:30:31.177Z,70.0324
2023-04-15T10:31:32.468Z,70.5376
2023-04-15T10:32:33.428Z,70.4395
2023-04-15T10:33:34.501Z,69.0342
2023-04-15T10:34:34.714Z,69.4240
2023-04-15T10:35:35.332Z,69.6034
2023-04-15T10:36:36.394Z,68.7014
2023-04-15T10:37:37.060Z,68.9408
2023-04-15T10:38:37.874Z,68.9065
2023-04-15T10:39:39.008Z,68.6984
2023-04-15T10:40:39.585Z,69.9343
2023-04-15T10:41:40.264Z,68.5298
2023-04-15T10:43:51.208Z,67.0519
2023-04-15T10:44:51.408Z,68.6109
2023-04-15T10:45:52.562Z,68.2910
2023-04-15T10:46:53.108Z,67.6685
2023-04-15T10:47:54.452Z,66.9778
2023-04-15T10:48:55.220Z,68.0577
2023-04-15T10:49:56.111Z,68.1620
2023-04-15T10:50:57.069Z,68.4708
2023-04-15T10:51:57.679Z,70.7550
2023-04-15T10:52:57.689Z,74.4480
2023-04-15T10:53:58.787Z,74.4117
2023-04-15T10:54:59.511Z,74.1546
2023-04-15T10:56:00.300Z,73.8421
2023-04-15T10:57:00.929Z,73.8720
2023-04-15T10:58:01.576Z,71.5530
2023-04-15T10:59:02.532Z,71.3348
2023-04-15T11:00:03.764Z,71.6220
2023-04-15T11:01:04.532Z,70.6397
2023-04-15T11:02:04.717Z,70.9947
2023-04-15T11:03:05.356Z,70.7487
2023-04-15T11:04:07.818Z,70.3864
2023-04-15T11:05:08.831Z,71.2703
2023-04-15T11:06:08.726Z,72.0266
2023-04-15T11:07:09.750Z,72.5260
2023-04-15T11:08:10.801Z,71.1046
2023-04-15T11:09:12.474Z,70.8868
2023-04-15T11:11:13.340Z,70.3064
2023-04-15T11:12:13.789Z,70.2104
2023-04-15T11:13:20.036Z,69.6480
2023-04-15T11:14:20.805Z,70.0441
2023-04-15T11:15:21.774Z,69.7624
2023-04-15T11:16:22.910Z,69.4977
2023-04-15T11:17:23.316Z,69.3245
2023-04-15T11:18:23.578Z,70.2508
2023-04-15T11:19:24.694Z,70.7573
2023-04-15T11:20:24.590Z,71.4840
2023-04-15T11:21:41.620Z,71.7522
2023-04-15T11:22:42.788Z,73.1908
2023-04-15T11:23:43.011Z,73.3114
2023-04-15T11:24:43.349Z,73.6930
2023-04-15T11:25:44.252Z,74.3067
2023-04-15T11:26:44.082Z,74.5627
2023-04-15T11:27:44.848Z,74.9723
2023-04-15T11:28:45.611Z,75.0270
2023-04-15T11:29:46.644Z,75.3733
2023-04-15T11:30:47.369Z,75.2375
2023-04-15T11:31:48.384Z,75.4888
2023-04-15T11:32:49.644Z,75.9555
2023-04-15T11:33:50.863Z,75.2787
2023-04-15T11:34:51.662Z,75.0264
2023-04-15T11:35:52.245Z,75.0572
2023-04-15T11:36:53.471Z,75.0752
2023-04-15T11:37:54.212Z,74.6483
2023-04-15T11:38:55.043Z,74.1544
2023-04-15T11:39:55.903Z,74.3505
2023-04-15T11:40:57.270Z,74.9510
2023-04-15T11:41:58.022Z,74.9293
2023-04-15T11:42:58.228Z,74.8421
2023-04-15T11:43:59.296Z,74.8614
2023-04-15T11:44:59.871Z,74.0597
2023-04-15T11:46:01.010Z,74.3850
2023-04-15T11:47:02.044Z,74.7536
2023-04-15T11:48:03.089Z,74.4089
2023-04-15T11:49:03.705Z,74.3635
2023-04-15T11:50:04.556Z,74.3320
2023-04-15T11:51:05.221Z,74.9671
2023-04-15T11:52:05.854Z,75.3618
2023-04-15T11:53:08.384Z,75.1007
2023-04-15T11:54:06.711Z,75.0502
2023-04-15T11:55:07.277Z,74.8722
2023-04-15T11:56:07.914Z,75.3516
2023-04-15T11:57:08.703Z,75.1098
2023-04-15T11:58:09.493Z,73.6894
2023-04-15T11:59:10.184Z,73.1135
2023-04-15T12:00:10.933Z,72.7675
2023-04-15T12:01:11.431Z,71.8355
2023-04-15T12:02:12.218Z,72.2344
2023-04-15T12:03:13.584Z,73.1462
2023-04-15T12:04:14.466Z,72.1623
2023-04-15T12:05:15.785Z,72.1458
2023-04-15T12:06:16.805Z,71.4053
2023-04-15T12:07:17.611Z,70.9022
2023-04-15T12:08:18.202Z,69.6277
2023-04-15T12:09:18.882Z,70.1248
2023-04-15T12:10:19.966Z,69.6106
2023-04-15T12:11:20.656Z,68.6133
2023-04-15T12:12:20.889Z,68.6234
2023-04-15T12:13:21.079Z,68.9248
2023-04-15T12:14:21.378Z,68.8091
2023-04-15T12:15:22.150Z,69.7191
2023-04-15T12:16:22.941Z,70.5186
2023-04-15T12:17:23.347Z,69.9601
2023-04-15T12:18:23.736Z,69.8392
2023-04-15T12:19:24.095Z,69.5331
2023-04-15T12:20:25.312Z,70.3614
2023-04-15T12:21:25.430Z,69.5095
2023-04-15T12:22:26.042Z,68.5458
2023-04-15T12:23:26.105Z,67.9658
2023-04-15T12:24:26.851Z,67.1420